Time;durP1;ratioP1;P1;durP2;ratioP2;P2;SDS_P1;SDS_P2;PMS_P1;PMS_P2;Temp;Humidity;BMP_temperature;BMP_pressure;BME280_temperature;BME280_humidity;BME280_pressure;Samples;Min_cycle;Max_cycle;Signal;HPM_P1;HPM_P2
2023/09/13 00:01:55;;;;;;;0.22;0.22;;;;;;;20.75;73.33;97089.47;5033169;28;20061;-71
2023/09/13 00:04:24;;;;;;;0.10;0.10;;;;;;;20.83;74.22;97094.34;5021619;28;20091;-70
2023/09/13 00:06:52;;;;;;;0.10;0.10;;;;;;;20.86;74.06;97093.81;5028731;28;20045;-68
2023/09/13 00:09:20;;;;;;;0.10;0.10;;;;;;;20.85;74.34;97099.50;5031113;28;20038;-68
2023/09/13 00:11:48;;;;;;;0.10;0.10;;;;;;;20.77;75.00;97089.97;5031348;28;20068;-68
2023/09/13 00:14:17;;;;;;;0.17;0.17;;;;;;;20.84;74.11;97093.25;5029658;28;20034;-69
2023/09/13 00:16:44;;;;;;;0.10;0.10;;;;;;;20.87;74.26;97089.97;5023941;28;20042;-69
2023/09/13 00:19:12;;;;;;;0.13;0.13;;;;;;;20.85;74.67;97081.31;5026916;28;20107;-69
2023/09/13 00:21:42;;;;;;;0.10;0.10;;;;;;;20.87;74.60;97075.59;5030330;28;20493;-68
2023/09/13 00:24:10;;;;;;;0.10;0.03;;;;;;;20.86;74.44;97060.44;5031268;28;20579;-68
2023/09/13 00:26:38;;;;;;;0.20;0.20;;;;;;;20.86;74.72;97065.84;5034402;28;20048;-69
2023/09/13 00:29:06;;;;;;;0.10;0.10;;;;;;;20.69;74.88;97057.97;5033850;28;20123;-69
2023/09/13 00:31:35;;;;;;;0.03;0.03;;;;;;;20.70;74.70;97037.91;5038087;28;20037;-69
2023/09/13 00:34:03;;;;;;;0.20;0.20;;;;;;;20.69;74.93;97047.13;5030012;28;20042;-69
2023/09/13 00:36:31;;;;;;;0.10;0.10;;;;;;;20.70;75.71;97056.09;5021681;28;20042;-69
2023/09/13 00:38:58;;;;;;;0.03;0.03;;;;;;;20.63;75.72;97052.84;5029952;28;20059;-69
2023/09/13 00:41:26;;;;;;;0.10;0.10;;;;;;;20.63;75.32;97048.22;5037731;28;20168;-69
2023/09/13 00:43:54;;;;;;;0.13;0.13;;;;;;;20.66;76.12;97053.09;5037787;28;20115;-69
2023/09/13 00:46:22;;;;;;;0.10;0.10;;;;;;;20.65;75.58;97051.50;5034795;28;20430;-69
2023/09/13 00:48:51;;;;;;;0.20;0.20;;;;;;;20.75;74.89;97053.38;5033677;28;20115;-69
2023/09/13 00:51:20;;;;;;;0.10;0.10;;;;;;;20.65;75.24;97050.69;5023639;28;20042;-68
2023/09/13 00:53:48;;;;;;;0.08;0.08;;;;;;;20.38;76.74;97059.06;5029984;28;20037;-68
2023/09/13 00:56:17;;;;;;;0.10;0.10;;;;;;;20.23;77.20;97054.44;5033454;28;20055;-72
2023/09/13 00:58:47;;;;;;;0.10;0.10;;;;;;;20.16;78.07;97054.69;5024423;28;20038;-69
2023/09/13 01:01:16;;;;;;;0.10;0.08;;;;;;;20.04;78.36;97051.41;5033234;28;20171;-70
2023/09/13 01:03:44;;;;;;;0.13;0.13;;;;;;;20.15;77.63;97049.53;5033204;28;20045;-69
2023/09/13 01:06:14;;;;;;;0.00;0.00;;;;;;;20.09;78.53;97053.31;5020002;28;20072;-69
2023/09/13 01:08:43;;;;;;;0.15;0.15;;;;;;;20.05;78.73;97063.88;5028283;28;20041;-70
2023/09/13 01:11:11;;;;;;;0.10;0.10;;;;;;;19.95;79.13;97074.69;5030313;28;20049;-70
2023/09/13 01:13:39;;;;;;;0.10;0.10;;;;;;;19.99;78.57;97072.28;5026515;28;20481;-69
2023/09/13 01:16:14;;;;;;;0.03;0.03;;;;;;;20.04;77.89;97083.91;5032485;28;20058;-70
2023/09/13 01:18:46;;;;;;;0.20;0.20;;;;;;;20.08;77.55;97089.63;5031300;28;20041;-70
2023/09/13 01:21:32;;;;;;;0.10;0.10;;;;;;;20.00;76.61;97090.97;5018487;28;20076;-69
2023/09/13 01:24:32;;;;;;;0.10;0.10;;;;;;;19.91;76.41;97100.69;5020995;28;20073;-69
2023/09/13 01:27:10;;;;;;;0.15;0.15;;;;;;;20.06;76.04;97097.19;5028504;28;20420;-69
2023/09/13 01:29:40;;;;;;;0.20;0.17;;;;;;;19.91;76.24;97108.84;5024208;28;20143;-69
2023/09/13 01:32:07;;;;;;;0.10;0.10;;;;;;;19.77;77.10;97105.78;5032653;28;20051;-69
2023/09/13 01:34:35;;;;;;;0.10;0.10;;;;;;;19.73;77.56;97096.56;5031228;28;20166;-69
2023/09/13 01:37:03;;;;;;;0.10;0.10;;;;;;;19.67;77.82;97097.63;5031660;28;20050;-70
2023/09/13 01:39:31;;;;;;;0.13;0.13;;;;;;;19.57;78.44;97102.19;5028709;28;20099;-69
2023/09/13 01:42:03;;;;;;;0.10;0.10;;;;;;;19.49;78.60;97108.94;5032383;28;20049;-70
2023/09/13 01:44:31;;;;;;;0.20;0.20;;;;;;;19.45;78.32;97094.25;5026745;28;20045;-70
2023/09/13 01:47:02;;;;;;;0.03;0.03;;;;;;;19.39;78.17;97093.41;5024381;28;20088;-70
2023/09/13 01:49:30;;;;;;;0.10;0.10;;;;;;;19.33;78.61;97094.44;5022337;28;20051;-69
2023/09/13 01:51:58;;;;;;;0.10;0.10;;;;;;;19.33;78.67;97105.28;5018850;28;20050;-69
2023/09/13 01:54:26;;;;;;;0.13;0.13;;;;;;;19.12;79.54;97117.06;5028166;28;20041;-70
2023/09/13 01:56:53;;;;;;;0.10;0.10;;;;;;;19.27;79.37;97117.16;5025958;28;20054;-69
2023/09/13 01:59:21;;;;;;;0.10;0.10;;;;;;;19.35;79.05;97115.84;5022534;28;20073;-69
2023/09/13 02:01:49;;;;;;;0.10;0.10;;;;;;;19.46;78.68;97114.81;5030362;28;20049;-69
2023/09/13 02:04:18;;;;;;;0.10;0.10;;;;;;;19.50;78.52;97110.56;5031857;28;20063;-70
2023/09/13 02:06:46;;;;;;;0.03;0.03;;;;;;;19.50;78.43;97115.16;5032327;28;20069;-70
2023/09/13 02:09:13;;;;;;;0.03;0.03;;;;;;;19.51;78.68;97122.19;5019858;28;20099;-70
2023/09/13 02:11:41;;;;;;;0.10;0.10;;;;;;;19.48;78.34;97122.69;5030824;28;20160;-70
2023/09/13 02:14:09;;;;;;;0.13;0.13;;;;;;;19.44;78.48;97119.69;5031456;28;20038;-70
2023/09/13 02:16:36;;;;;;;0.15;0.15;;;;;;;19.36;78.75;97114.78;5018211;28;20034;-70
2023/09/13 02:19:05;;;;;;;0.03;0.03;;;;;;;19.27;79.03;97125.28;5019407;28;20063;-70
2023/09/13 02:21:34;;;;;;;0.10;0.10;;;;;;;19.23;79.43;97139.59;5031064;28;20045;-70
2023/09/13 02:24:02;;;;;;;0.10;0.10;;;;;;;19.15;79.99;97137.38;5018634;28;20052;-70
2023/09/13 02:26:30;;;;;;;0.13;0.13;;;;;;;19.17;79.69;97119.81;5037178;28;20178;-70
2023/09/13 02:28:58;;;;;;;0.20;0.20;;;;;;;19.14;79.64;97116.81;5031128;28;20037;-70
2023/09/13 02:31:28;;;;;;;0.10;0.10;;;;;;;19.21;78.96;97123.59;5017204;28;20133;-69
2023/09/13 02:33:56;;;;;;;0.10;0.10;;;;;;;19.12;79.66;97130.59;5031322;28;20047;-69
2023/09/13 02:36:23;;;;;;;0.20;0.20;;;;;;;19.06;79.78;97131.63;5020618;28;20506;-69
2023/09/13 02:38:53;;;;;;;0.15;0.15;;;;;;;19.08;79.99;97126.78;5030326;28;20125;-70
2023/09/13 02:41:20;;;;;;;0.20;0.20;;;;;;;19.11;79.97;97118.13;5035290;28;20033;-70
2023/09/13 02:43:48;;;;;;;0.03;0.03;;;;;;;19.10;79.90;97124.66;5021066;28;20052;-70
2023/09/13 02:46:16;;;;;;;0.10;0.10;;;;;;;19.10;79.51;97115.72;5027347;28;20045;-70
2023/09/13 02:48:45;;;;;;;0.10;0.10;;;;;;;19.10;79.70;97115.72;5025870;28;20096;-70
2023/09/13 02:51:14;;;;;;;0.05;0.05;;;;;;;19.18;79.71;97117.91;5019498;28;20092;-69
2023/09/13 02:53:42;;;;;;;0.20;0.20;;;;;;;19.20;79.35;97116.59;5026421;28;20056;-69
2023/09/13 02:56:11;;;;;;;0.10;0.10;;;;;;;19.24;79.74;97122.28;5034991;28;20404;-69
2023/09/13 02:58:40;;;;;;;0.03;0.03;;;;;;;19.25;80.15;97118.50;5018653;28;20104;-71
2023/09/13 03:01:10;;;;;;;0.30;0.30;;;;;;;19.38;79.16;97121.56;5018229;28;20104;-69
2023/09/13 03:03:40;;;;;;;0.05;0.05;;;;;;;19.40;78.25;97122.13;5018051;28;20038;-69
2023/09/13 03:06:12;;;;;;;0.10;0.10;;;;;;;19.47;78.41;97121.06;5031721;28;20046;-71
2023/09/13 03:08:41;;;;;;;0.10;0.10;;;;;;;19.36;78.52;97120.19;5019084;28;20049;-71
2023/09/13 03:11:12;;;;;;;0.10;0.10;;;;;;;19.20;79.18;97123.91;5025890;28;20412;-71
2023/09/13 03:13:40;;;;;;;0.10;0.10;;;;;;;19.06;79.57;97118.13;5027184;28;20057;-72
2023/09/13 03:16:12;;;;;;;0.17;0.17;;;;;;;18.99;80.03;97112.94;5023099;28;20595;-70
2023/09/13 03:18:40;;;;;;;0.10;0.10;;;;;;;18.93;79.97;97119.38;5017751;28;20445;-68
2023/09/13 03:21:09;;;;;;;0.10;0.10;;;;;;;18.96;80.15;97121.56;5027495;28;20041;-69
2023/09/13 03:23:39;;;;;;;0.10;0.10;;;;;;;19.00;80.11;97117.25;5029646;28;20037;-69
2023/09/13 03:26:13;;;;;;;0.13;0.13;;;;;;;18.97;79.99;97109.66;5020520;28;20480;-69
2023/09/13 03:28:43;;;;;;;0.13;0.13;;;;;;;19.04;79.76;97101.31;5023222;28;20057;-69
2023/09/13 03:31:11;;;;;;;0.20;0.10;;;;;;;19.05;79.88;97097.53;5031494;28;20037;-69
2023/09/13 03:33:40;;;;;;;0.10;0.10;;;;;;;19.05;79.60;97094.84;5026982;28;20045;-69
2023/09/13 03:36:08;;;;;;;0.10;0.10;;;;;;;19.09;79.15;97093.25;5024321;28;20561;-69
2023/09/13 03:38:37;;;;;;;0.20;0.20;;;;;;;19.08;79.38;97099.72;5023107;28;20046;-68
2023/09/13 03:41:06;;;;;;;0.03;0.03;;;;;;;19.11;78.47;97101.06;5028157;28;20077;-68
2023/09/13 03:43:36;;;;;;;0.13;0.13;;;;;;;18.99;79.21;97099.41;5028032;28;20115;-71
2023/09/13 03:46:05;;;;;;;0.13;0.13;;;;;;;18.71;80.11;97107.84;5023101;28;20069;-69
2023/09/13 03:48:36;;;;;;;0.30;0.13;;;;;;;18.61;80.56;97113.16;5033345;28;20069;-69
2023/09/13 03:51:04;;;;;;;0.13;0.13;;;;;;;18.65;80.54;97114.28;5025178;28;20065;-69
2023/09/13 03:53:32;;;;;;;0.00;0.00;;;;;;;18.57;80.73;97102.06;5027445;28;20500;-69
2023/09/13 03:56:00;;;;;;;0.13;0.13;;;;;;;18.56;80.90;97110.41;5027786;28;20045;-70
2023/09/13 03:58:28;;;;;;;0.13;0.13;;;;;;;18.67;80.49;97096.75;5025682;28;20099;-69
2023/09/13 04:00:58;;;;;;;0.03;0.03;;;;;;;18.68;80.20;97098.38;5029106;28;20053;-69
2023/09/13 04:03:27;;;;;;;0.13;0.13;;;;;;;18.64;80.66;97099.94;5027338;28;20556;-70
2023/09/13 04:05:55;;;;;;;0.15;0.15;;;;;;;18.55;80.78;97098.78;5035122;28;20064;-69
2023/09/13 04:08:23;;;;;;;0.13;0.13;;;;;;;18.55;80.88;97098.78;5035663;28;20045;-69
2023/09/13 04:10:50;;;;;;;0.20;0.20;;;;;;;18.46;81.04;97103.00;5026912;28;20042;-69
2023/09/13 04:13:19;;;;;;;0.20;0.20;;;;;;;18.36;81.17;97094.81;5033219;28;20079;-69
2023/09/13 04:15:47;;;;;;;0.13;0.13;;;;;;;18.38;81.35;97106.16;5027029;28;20041;-69
2023/09/13 04:18:16;;;;;;;0.10;0.10;;;;;;;18.39;81.75;97113.19;5027577;28;20136;-69
2023/09/13 04:20:47;;;;;;;0.10;0.10;;;;;;;18.38;81.68;97110.75;5022527;28;20053;-68
2023/09/13 04:23:15;;;;;;;0.15;0.15;;;;;;;18.39;81.51;97104.28;5022775;28;20037;-71
2023/09/13 04:25:43;;;;;;;0.10;0.10;;;;;;;18.43;81.69;97098.13;5026332;28;20046;-69
2023/09/13 04:28:13;;;;;;;0.13;0.13;;;;;;;18.42;81.51;97095.66;5017481;28;20049;-71
2023/09/13 04:30:41;;;;;;;0.00;0.00;;;;;;;18.41;81.44;97105.66;5025519;28;20480;-69
2023/09/13 04:33:09;;;;;;;0.20;0.20;;;;;;;18.44;81.03;97097.03;5024389;28;20048;-68
2023/09/13 04:35:39;;;;;;;0.10;0.10;;;;;;;18.51;80.36;97096.81;5024008;28;20061;-68
2023/09/13 04:38:07;;;;;;;0.10;0.10;;;;;;;18.62;79.25;97096.69;5023380;28;20048;-70
2023/09/13 04:40:34;;;;;;;0.10;0.10;;;;;;;18.60;79.01;97090.72;5021912;28;20045;-69
2023/09/13 04:43:23;;;;;;;0.20;0.20;;;;;;;18.63;78.40;97084.81;5023164;28;20046;-70
2023/09/13 04:45:52;;;;;;;0.10;0.10;;;;;;;18.71;77.90;97083.50;5022148;28;20136;-70
2023/09/13 04:48:20;;;;;;;0.03;0.03;;;;;;;18.74;77.58;97079.47;5024386;28;20041;-70
2023/09/13 04:50:49;;;;;;;0.13;0.13;;;;;;;18.69;77.14;97081.03;5020645;28;20505;-70
2023/09/13 04:53:17;;;;;;;0.17;0.10;;;;;;;18.68;77.22;97084.84;5033404;28;20480;-71
2023/09/13 04:55:45;;;;;;;0.10;0.10;;;;;;;18.70;77.21;97084.56;5028275;28;20725;-70
2023/09/13 04:58:13;;;;;;;0.10;0.10;;;;;;;18.75;76.47;97092.75;5022194;28;20084;-71
2023/09/13 05:00:41;;;;;;;0.13;0.13;;;;;;;18.79;76.26;97093.03;5028355;28;20070;-72
2023/09/13 05:03:09;;;;;;;0.13;0.13;;;;;;;18.78;76.24;97091.41;5020997;28;20715;-69
2023/09/13 05:05:36;;;;;;;0.08;0.08;;;;;;;18.76;76.40;97093.56;5033617;28;20384;-69
2023/09/13 05:08:06;;;;;;;0.03;0.03;;;;;;;18.77;76.34;97078.97;5033521;28;20456;-69
2023/09/13 05:10:34;;;;;;;0.13;0.13;;;;;;;18.80;76.25;97087.34;5033491;28;20412;-69
2023/09/13 05:13:01;;;;;;;0.20;0.20;;;;;;;18.81;76.24;97097.09;5033288;28;20045;-69
2023/09/13 05:15:29;;;;;;;0.10;0.10;;;;;;;18.84;75.62;97104.69;5032880;28;20046;-69
2023/09/13 05:17:57;;;;;;;0.22;0.22;;;;;;;18.83;75.14;97102.25;5033687;28;20046;-69
2023/09/13 05:20:26;;;;;;;0.13;0.13;;;;;;;18.82;75.66;97112.25;5032961;28;20042;-69
2023/09/13 05:22:54;;;;;;;0.10;0.10;;;;;;;18.82;75.51;97114.94;5020741;28;20069;-69
2023/09/13 05:25:23;;;;;;;0.10;0.10;;;;;;;18.82;75.82;97120.38;5029871;28;20536;-69
2023/09/13 05:27:51;;;;;;;0.20;0.20;;;;;;;18.77;76.33;97120.34;5027155;28;20095;-69
2023/09/13 05:30:18;;;;;;;0.03;0.03;;;;;;;18.78;76.37;97129.25;5029387;28;20045;-69
2023/09/13 05:32:46;;;;;;;0.20;0.20;;;;;;;18.82;76.28;97133.88;5025463;28;20034;-69
2023/09/13 05:35:16;;;;;;;0.13;0.13;;;;;;;18.88;75.68;97143.69;5032528;28;20049;-69
2023/09/13 05:37:44;;;;;;;0.03;0.03;;;;;;;19.00;75.39;97148.88;5031671;28;20144;-69
2023/09/13 05:40:12;;;;;;;0.13;0.13;;;;;;;19.02;75.26;97154.88;5032620;28;20050;-69
2023/09/13 05:42:41;;;;;;;0.10;0.10;;;;;;;19.00;75.00;97155.13;5019990;28;20489;-69
2023/09/13 05:45:10;;;;;;;0.17;0.13;;;;;;;19.04;75.07;97158.94;5021315;28;20501;-69
2023/09/13 05:47:37;;;;;;;0.10;0.10;;;;;;;19.05;74.59;97165.19;5030229;28;20075;-69
2023/09/13 05:50:06;;;;;;;0.13;0.13;;;;;;;19.09;74.11;97169.00;5031348;28;20064;-69
2023/09/13 05:52:34;;;;;;;0.13;0.13;;;;;;;19.11;73.77;97169.53;5031736;28;20041;-69
2023/09/13 05:55:02;;;;;;;0.10;0.10;;;;;;;19.16;73.65;97174.19;5032665;28;20076;-71
2023/09/13 05:57:30;;;;;;;0.10;0.10;;;;;;;19.21;72.83;97180.44;5032470;28;20045;-69
2023/09/13 05:59:59;;;;;;;0.13;0.13;;;;;;;19.24;72.78;97182.63;5033276;28;20638;-69
2023/09/13 06:02:27;;;;;;;0.13;0.13;;;;;;;19.19;72.59;97185.31;5028559;28;20056;-69
2023/09/13 06:04:54;;;;;;;0.13;0.13;;;;;;;19.22;72.34;97186.66;5029611;28;20045;-69
2023/09/13 06:07:22;;;;;;;0.13;0.13;;;;;;;19.19;72.41;97184.50;5037468;28;20055;-70
2023/09/13 06:09:50;;;;;;;0.05;0.05;;;;;;;19.22;71.82;97178.53;5032313;28;20095;-69
2023/09/13 06:12:17;;;;;;;0.10;0.10;;;;;;;19.23;72.08;97183.69;5031989;28;20041;-69
2023/09/13 06:14:46;;;;;;;0.13;0.10;;;;;;;19.31;71.96;97190.53;5031829;28;20045;-69
2023/09/13 06:17:15;;;;;;;0.10;0.10;;;;;;;19.34;71.85;97192.72;5031023;28;20382;-70
2023/09/13 06:19:43;;;;;;;0.13;0.13;;;;;;;19.34;71.90;97200.81;5022730;28;20056;-69
2023/09/13 06:22:10;;;;;;;0.03;0.03;;;;;;;19.35;71.59;97194.34;5024412;28;20044;-69
2023/09/13 06:24:38;;;;;;;0.13;0.13;;;;;;;19.33;71.68;97208.13;5032094;28;20045;-71
2023/09/13 06:27:06;;;;;;;0.20;0.20;;;;;;;19.36;71.81;97212.22;5033026;28;20049;-69
2023/09/13 06:29:33;;;;;;;0.03;0.03;;;;;;;19.37;71.71;97213.84;5032702;28;20053;-69
2023/09/13 06:32:02;;;;;;;0.10;0.10;;;;;;;19.36;71.66;97217.63;5032584;28;20049;-69
2023/09/13 06:34:34;;;;;;;0.10;0.10;;;;;;;19.38;71.96;97212.78;5028879;28;20639;-69
2023/09/13 06:37:03;;;;;;;0.13;0.13;;;;;;;19.34;71.82;97222.47;5032695;28;20080;-69
2023/09/13 06:39:34;;;;;;;0.10;0.10;;;;;;;19.32;72.05;97211.91;5033700;28;20120;-69
2023/09/13 06:42:02;;;;;;;0.10;0.10;;;;;;;19.31;72.16;97212.97;5033428;28;20050;-69
2023/09/13 06:44:50;;;;;;;0.13;0.13;;;;;;;19.39;72.44;97217.13;5032361;28;20057;-69
2023/09/13 06:47:19;;;;;;;0.20;0.20;;;;;;;19.39;72.54;97220.66;5030422;28;20037;-70
2023/09/13 06:49:48;;;;;;;0.10;0.10;;;;;;;19.48;71.93;97225.56;5023655;28;20136;-69
2023/09/13 06:52:19;;;;;;;0.13;0.13;;;;;;;19.58;72.08;97237.31;5030534;28;20077;-69
2023/09/13 06:54:49;;;;;;;0.17;0.15;;;;;;;19.50;72.19;97237.00;5029979;28;20439;-69
2023/09/13 06:57:19;;;;;;;0.10;0.10;;;;;;;19.51;72.25;97236.72;5031372;28;20532;-69
2023/09/13 06:59:54;;;;;;;0.10;0.10;;;;;;;19.55;72.21;97234.31;5030229;28;20129;-69
2023/09/13 07:02:27;;;;;;;0.20;0.20;;;;;;;19.63;72.14;97233.81;5028704;28;20111;-69
2023/09/13 07:05:05;;;;;;;0.20;0.20;;;;;;;19.67;72.01;97240.34;5028353;28;20136;-69
2023/09/13 07:07:36;;;;;;;0.10;0.10;;;;;;;19.72;72.30;97240.38;5021254;28;20049;-69
2023/09/13 07:10:04;;;;;;;0.10;0.10;;;;;;;19.71;72.33;97238.75;5031389;28;20621;-69
2023/09/13 07:12:32;;;;;;;0.10;0.10;;;;;;;19.70;72.36;97250.66;5031115;28;20049;-69
2023/09/13 07:14:59;;;;;;;0.03;0.03;;;;;;;19.71;72.24;97245.00;5030442;28;20515;-69
2023/09/13 07:17:27;;;;;;;0.10;0.10;;;;;;;19.68;72.52;97252.81;5028574;28;20107;-69
2023/09/13 07:19:55;;;;;;;0.13;0.13;;;;;;;19.74;72.60;97254.47;5031271;28;20041;-69
2023/09/13 07:22:24;;;;;;;0.13;0.13;;;;;;;19.79;72.52;97268.88;5030530;28;20413;-69
2023/09/13 07:24:52;;;;;;;0.10;0.10;;;;;;;19.90;72.79;97275.16;5031077;28;20042;-69
2023/09/13 07:27:21;;;;;;;0.10;0.10;;;;;;;19.94;72.21;97272.72;5030738;28;20041;-69
2023/09/13 07:29:49;;;;;;;0.08;0.08;;;;;;;19.98;71.96;97284.69;5031062;28;20049;-69
2023/09/13 07:32:17;;;;;;;0.10;0.10;;;;;;;20.01;72.05;97278.75;5030630;28;20196;-69
2023/09/13 07:34:45;;;;;;;0.05;0.05;;;;;;;20.02;71.90;97274.97;5030808;28;20049;-69
2023/09/13 07:37:13;;;;;;;0.10;0.10;;;;;;;20.12;71.82;97275.84;5030910;28;20128;-69
2023/09/13 07:39:42;;;;;;;0.35;0.35;;;;;;;20.07;70.96;97277.69;5030901;28;20156;-69
2023/09/13 07:42:11;;;;;;;0.22;0.22;;;;;;;20.08;71.18;97282.03;5031022;28;20045;-69
2023/09/13 07:44:38;;;;;;;0.13;0.13;;;;;;;20.01;70.93;97278.75;5030610;28;20049;-69
2023/09/13 07:47:06;;;;;;;0.10;0.10;;;;;;;20.00;71.22;97286.06;5030981;28;20045;-69
2023/09/13 07:49:34;;;;;;;0.20;0.20;;;;;;;19.97;71.17;97286.56;5030676;28;20041;-69
2023/09/13 07:52:02;;;;;;;0.03;0.03;;;;;;;19.96;70.85;97293.06;5030728;28;20147;-69
2023/09/13 07:54:29;;;;;;;0.00;0.00;;;;;;;20.04;70.98;97287.16;5030448;28;20045;-68
2023/09/13 07:56:58;;;;;;;0.03;0.03;;;;;;;20.25;70.81;97276.41;5030745;28;20405;-68
2023/09/13 07:59:27;;;;;;;0.15;0.15;;;;;;;20.23;70.78;97273.16;5030449;28;20141;-68
2023/09/13 08:01:54;;;;;;;0.10;0.10;;;;;;;20.14;70.80;97275.56;5030854;28;20042;-68
2023/09/13 08:04:22;;;;;;;0.10;0.10;;;;;;;20.29;70.32;97288.38;5030305;28;20046;-68
2023/09/13 08:06:50;;;;;;;0.10;0.10;;;;;;;20.28;70.23;97281.31;5030001;28;20496;-71
2023/09/13 08:09:18;;;;;;;0.10;0.10;;;;;;;20.30;70.26;97288.09;5030624;28;20385;-71
2023/09/13 08:11:46;;;;;;;0.13;0.13;;;;;;;20.32;70.05;97299.50;5030345;28;20055;-69
2023/09/13 08:14:16;;;;;;;0.13;0.13;;;;;;;20.38;69.80;97305.78;5030596;28;20068;-68
2023/09/13 08:16:43;;;;;;;0.17;0.17;;;;;;;20.27;69.87;97302.19;5030493;28;20052;-69
2023/09/13 08:19:11;;;;;;;0.20;0.20;;;;;;;20.12;70.49;97299.41;5025691;28;20052;-69
2023/09/13 08:21:41;;;;;;;0.10;0.10;;;;;;;20.13;70.60;97304.56;5030383;28;20045;-68
2023/09/13 08:24:09;;;;;;;0.13;0.13;;;;;;;20.21;70.08;97319.50;5030372;28;20557;-70
2023/09/13 08:26:36;;;;;;;0.03;0.00;;;;;;;20.13;70.45;97323.53;5031634;28;20519;-68
2023/09/13 08:29:04;;;;;;;0.17;0.17;;;;;;;20.22;70.12;97328.47;5033948;28;20511;-70
2023/09/13 08:31:33;;;;;;;0.15;0.15;;;;;;;20.39;69.98;97324.50;5033944;28;20052;-68
2023/09/13 08:34:01;;;;;;;0.10;0.10;;;;;;;20.47;69.16;97325.91;5033773;28;20041;-70
2023/09/13 08:36:28;;;;;;;0.08;0.08;;;;;;;20.46;69.11;97318.84;5033790;28;20128;-68
2023/09/13 08:38:56;;;;;;;0.15;0.15;;;;;;;20.52;69.05;97328.66;5021048;28;20037;-68
2023/09/13 08:41:24;;;;;;;0.00;0.00;;;;;;;20.48;69.15;97324.81;5030109;28;20517;-68
2023/09/13 08:43:51;;;;;;;0.10;0.10;;;;;;;20.56;68.91;97334.38;5033569;28;20034;-68
2023/09/13 08:46:20;;;;;;;0.20;0.20;;;;;;;20.65;68.31;97338.19;5031933;28;20083;-68
2023/09/13 08:48:50;;;;;;;0.22;0.22;;;;;;;20.63;68.10;97340.34;5025810;28;20768;-68
2023/09/13 08:51:19;;;;;;;0.82;0.82;;;;;;;20.45;68.25;97349.78;5033461;28;20416;-69
2023/09/13 08:53:48;;;;;;;0.40;0.40;;;;;;;20.38;68.82;97349.16;5033164;28;20099;-68
2023/09/13 08:56:16;;;;;;;0.30;0.30;;;;;;;20.41;68.17;97349.47;5032868;28;20080;-70
2023/09/13 08:58:43;;;;;;;0.28;0.28;;;;;;;20.48;68.61;97358.19;5033116;28;20073;-68
2023/09/13 09:01:12;;;;;;;0.93;0.93;;;;;;;20.51;68.15;97354.94;5033570;28;20053;-68
2023/09/13 09:03:40;;;;;;;3.15;3.05;;;;;;;20.49;68.52;97353.56;5033085;28;20049;-71
2023/09/13 09:06:10;;;;;;;1.02;1.02;;;;;;;20.64;68.14;97360.97;5033187;28;20041;-67
2023/09/13 09:08:39;;;;;;;2.58;2.55;;;;;;;20.73;67.49;97354.78;5032766;28;20080;-69
2023/09/13 09:11:08;;;;;;;4.35;4.25;;;;;;;20.80;67.21;97363.47;5033275;28;20045;-68
2023/09/13 09:13:38;;;;;;;2.53;2.50;;;;;;;20.72;67.89;97349.59;5032995;28;20095;-68
2023/09/13 09:16:06;;;;;;;3.22;3.13;;;;;;;20.85;67.67;97357.25;5033002;28;20041;-69
2023/09/13 09:18:37;;;;;;;0.50;0.50;;;;;;;20.94;67.44;97349.41;5033338;28;20145;-70
2023/09/13 09:21:05;;;;;;;0.20;0.20;;;;;;;21.03;66.47;97347.81;5033123;28;20421;-69
2023/09/13 09:23:34;;;;;;;0.10;0.10;;;;;;;21.04;65.57;97344.00;5032572;28;20052;-69
2023/09/13 09:26:04;;;;;;;0.10;0.10;;;;;;;21.13;65.09;97337.78;5032789;28;20512;-68
2023/09/13 09:28:32;;;;;;;0.05;0.05;;;;;;;21.15;64.92;97346.50;5033147;28;20045;-68
2023/09/13 09:31:01;;;;;;;0.10;0.10;;;;;;;21.22;64.77;97352.50;5032884;28;20121;-71
2023/09/13 09:33:31;;;;;;;0.00;0.00;;;;;;;21.32;64.54;97342.72;5032744;28;20048;-69
2023/09/13 09:36:00;;;;;;;0.03;0.03;;;;;;;21.50;63.55;97353.06;5032554;28;20095;-68
2023/09/13 09:38:29;;;;;;;0.03;0.03;;;;;;;21.47;63.12;97349.00;5032172;28;20046;-68
2023/09/13 09:41:01;;;;;;;0.20;0.20;;;;;;;21.37;63.87;97357.16;5032564;28;20045;-69
2023/09/13 09:43:29;;;;;;;0.10;0.10;;;;;;;21.50;63.87;97359.31;5023032;28;20038;-69
2023/09/13 09:45:57;;;;;;;0.10;0.10;;;;;;;21.67;62.93;97350.09;5032302;28;20396;-69
2023/09/13 09:48:26;;;;;;;0.10;0.10;;;;;;;21.59;63.52;97357.69;5032241;28;20056;-69
2023/09/13 09:50:55;;;;;;;0.10;0.10;;;;;;;21.66;63.12;97364.78;5032026;28;20045;-69
2023/09/13 09:53:23;;;;;;;0.00;0.00;;;;;;;21.71;63.04;97373.72;5032262;28;20048;-69
2023/09/13 09:55:51;;;;;;;0.03;0.03;;;;;;;21.78;62.59;97365.31;5023881;28;20405;-69
2023/09/13 09:58:22;;;;;;;0.10;0.10;;;;;;;21.80;62.33;97372.09;5031938;28;20043;-69
2023/09/13 10:00:51;;;;;;;0.10;0.10;;;;;;;21.60;62.29;97367.47;5024254;28;20041;-69
2023/09/13 10:03:20;;;;;;;0.13;0.13;;;;;;;21.50;62.80;97374.78;5031210;28;20053;-69
2023/09/13 10:05:52;;;;;;;0.00;0.00;;;;;;;21.38;63.59;97380.50;5032058;28;20103;-69
2023/09/13 10:08:20;;;;;;;;;;;;;;;21.32;64.12;97391.63;5031170;28;20111;-69
2023/09/13 10:10:51;;;;;;;0.10;0.10;;;;;;;21.26;63.85;97390.81;5032413;28;20014;-69
2023/09/13 10:13:18;;;;;;;0.13;0.13;;;;;;;21.16;64.16;97394.28;5035664;28;20501;-68
2023/09/13 10:15:48;;;;;;;0.17;0.17;;;;;;;21.21;64.18;97385.34;5032883;28;20047;-69
2023/09/13 10:18:16;;;;;;;0.10;0.10;;;;;;;21.26;64.33;97385.38;5032583;28;20045;-69
2023/09/13 10:20:45;;;;;;;0.17;0.17;;;;;;;21.15;64.53;97386.41;5031640;28;20459;-68
2023/09/13 10:23:12;;;;;;;0.10;0.10;;;;;;;21.31;64.22;97390.78;5032295;28;20560;-69
2023/09/13 10:25:43;;;;;;;0.10;0.10;;;;;;;21.23;63.98;97389.44;5031461;28;20041;-70
2023/09/13 10:28:12;;;;;;;0.05;0.05;;;;;;;21.20;64.45;97386.41;5031842;28;20037;-69
2023/09/13 10:30:42;;;;;;;0.10;0.10;;;;;;;21.28;64.49;97393.25;5017914;28;20045;-69
2023/09/13 10:33:14;;;;;;;0.10;0.10;;;;;;;21.21;64.61;97388.06;5033459;28;20120;-69
2023/09/13 10:35:46;;;;;;;0.10;0.10;;;;;;;21.19;64.53;97388.31;5032060;28;20055;-69
2023/09/13 10:38:19;;;;;;;0.10;0.10;;;;;;;21.27;64.51;97391.63;5031370;28;20052;-69
2023/09/13 10:40:53;;;;;;;0.03;0.03;;;;;;;21.35;64.53;97391.91;5031558;28;20512;-69
2023/09/13 10:43:22;;;;;;;0.20;0.20;;;;;;;21.39;64.59;97397.59;5032961;28;20037;-69
2023/09/13 10:45:50;;;;;;;0.03;0.03;;;;;;;21.44;64.19;97405.75;5025033;28;20045;-69
2023/09/13 10:48:20;;;;;;;0.10;0.10;;;;;;;21.37;64.18;97406.03;5022255;28;20052;-68
2023/09/13 10:50:48;;;;;;;0.10;0.10;;;;;;;21.30;64.35;97399.22;5030945;28;20076;-68
2023/09/13 10:53:16;;;;;;;0.10;0.10;;;;;;;21.17;64.95;97404.06;5032079;28;20053;-69
2023/09/13 10:55:45;;;;;;;0.10;0.10;;;;;;;21.02;65.72;97403.16;5029925;28;20405;-69
2023/09/13 10:58:18;;;;;;;0.13;0.13;;;;;;;21.01;65.66;97409.69;5031826;28;20049;-69
2023/09/13 11:00:47;;;;;;;0.03;0.03;;;;;;;21.06;65.75;97417.84;5031388;28;20041;-69
2023/09/13 11:03:16;;;;;;;0.20;0.20;;;;;;;21.06;65.44;97418.69;5031399;28;20077;-69
2023/09/13 11:05:48;;;;;;;0.17;0.17;;;;;;;21.01;66.00;97432.22;5030858;28;20053;-69
2023/09/13 11:08:26;;;;;;;0.10;0.10;;;;;;;21.00;66.03;97438.72;5031093;28;20436;-69
2023/09/13 11:10:55;;;;;;;0.17;0.17;;;;;;;21.04;66.26;97426.25;5023316;28;20044;-70
2023/09/13 11:13:30;;;;;;;0.10;0.10;;;;;;;21.04;65.78;97428.16;5030951;28;20049;-69
2023/09/13 11:16:03;;;;;;;0.20;0.20;;;;;;;21.02;65.97;97414.84;5023268;28;20063;-69
2023/09/13 11:18:31;;;;;;;0.13;0.13;;;;;;;21.07;66.13;97424.91;5030933;28;20051;-69
2023/09/13 11:21:00;;;;;;;0.10;0.10;;;;;;;21.04;65.74;97428.97;5031087;28;20497;-68
2023/09/13 11:23:42;;;;;;;0.10;0.10;;;;;;;21.13;66.04;97434.69;5031288;28;20076;-70
2023/09/13 11:26:45;;;;;;;0.10;0.10;;;;;;;21.17;65.62;97439.34;5026781;28;20037;-70
2023/09/13 11:29:24;;;;;;;0.10;0.10;;;;;;;21.19;65.54;97436.38;5031066;28;20053;-69
2023/09/13 11:31:59;;;;;;;0.03;0.03;;;;;;;21.19;65.09;97439.09;5031094;28;20045;-69
2023/09/13 11:34:29;;;;;;;0.13;0.13;;;;;;;21.22;64.97;97435.84;5027588;28;20056;-69
2023/09/13 11:37:00;;;;;;;0.10;0.10;;;;;;;21.23;65.17;97432.88;5031398;28;20517;-69
2023/09/13 11:39:29;;;;;;;0.15;0.15;;;;;;;21.32;64.87;97438.59;5031044;28;20121;-70
2023/09/13 11:41:57;;;;;;;0.03;0.03;;;;;;;21.41;64.40;97438.88;5031012;28;20049;-69
2023/09/13 11:44:26;;;;;;;0.20;0.20;;;;;;;21.47;63.58;97441.38;5028955;28;20045;-69